createdAt,value
2022-08-14T00:02:10.893Z,18.42
2022-08-14T00:07:14.601Z,18.41
2022-08-14T00:12:23.659Z,18.38
2022-08-14T00:17:28.199Z,18.39
2022-08-14T00:22:56.496Z,18.40
2022-08-14T00:27:54.142Z,18.40
2022-08-14T00:33:17.750Z,18.41
2022-08-14T00:38:29.186Z,18.39
2022-08-14T00:43:34.888Z,18.38
2022-08-14T00:48:38.627Z,18.34
2022-08-14T00:53:44.689Z,18.31
2022-08-14T00:58:55.762Z,18.29
2022-08-14T01:04:52.411Z,18.30
2022-08-14T01:09:35.960Z,18.32
2022-08-14T01:14:38.073Z,18.32
2022-08-14T01:20:08.840Z,18.31
2022-08-14T01:25:46.101Z,18.29
2022-08-14T01:30:50.368Z,18.29
2022-08-14T01:36:03.342Z,18.28
2022-08-14T01:41:11.908Z,18.27
2022-08-14T01:46:24.635Z,18.26
2022-08-14T01:51:28.597Z,18.24
2022-08-14T01:56:42.997Z,18.23
2022-08-14T02:01:58.382Z,18.24
2022-08-14T02:07:15.683Z,18.25
2022-08-14T02:12:29.108Z,18.21
2022-08-14T02:17:33.391Z,18.19
2022-08-14T02:22:43.867Z,18.16
2022-08-14T02:28:24.749Z,18.19
2022-08-14T02:33:12.312Z,18.19
2022-08-14T02:38:30.412Z,18.15
2022-08-14T02:43:46.597Z,18.16
2022-08-14T02:49:01.562Z,18.14
2022-08-14T02:54:09.906Z,18.10
2022-08-14T02:59:33.626Z,18.07
2022-08-14T03:04:36.059Z,18.03
2022-08-14T03:10:24.181Z,18.02
2022-08-14T03:15:20.946Z,18.02
2022-08-14T03:20:36.987Z,18.03
2022-08-14T03:25:40.827Z,18.01
2022-08-14T03:30:57.777Z,18.00
2022-08-14T03:37:51.228Z,18.00
2022-08-14T03:41:38.770Z,18.02
2022-08-14T03:46:54.840Z,18.03
2022-08-14T03:52:00.555Z,18.03
2022-08-14T03:57:08.970Z,18.04
2022-08-14T04:02:32.381Z,18.11
2022-08-14T04:07:36.121Z,18.21
2022-08-14T04:12:38.354Z,18.30
2022-08-14T04:17:58.041Z,18.35
2022-08-14T04:22:59.938Z,18.37
2022-08-14T04:28:05.506Z,18.38
2022-08-14T04:33:17.095Z,18.41
2022-08-14T04:38:41.878Z,18.43
2022-08-14T04:44:00.856Z,18.46
2022-08-14T04:49:04.056Z,18.48
2022-08-14T04:54:10.061Z,18.50
2022-08-14T04:59:15.237Z,18.50
2022-08-14T05:04:20.077Z,18.49
2022-08-14T05:09:23.470Z,18.57
2022-08-14T05:14:45.457Z,18.66
2022-08-14T05:21:54.459Z,18.74
2022-08-14T05:25:13.573Z,18.84
2022-08-14T05:30:18.520Z,18.83
2022-08-14T05:35:21.808Z,18.90
2022-08-14T05:40:23.872Z,19.02
2022-08-14T05:45:27.111Z,19.12
2022-08-14T05:50:29.891Z,19.16
2022-08-14T05:55:32.516Z,19.11
2022-08-14T06:00:40.116Z,19.16
2022-08-14T06:05:43.159Z,19.09
2022-08-14T06:10:45.536Z,18.97
2022-08-14T06:15:48.632Z,18.86
2022-08-14T06:20:50.751Z,18.96
2022-08-14T06:25:53.543Z,19.10
2022-08-14T06:31:10.222Z,19.23
2022-08-14T06:36:13.777Z,19.30
2022-08-14T06:41:20.978Z,19.31
2022-08-14T06:46:42.194Z,19.31
2022-08-14T06:52:05.068Z,19.29
2022-08-14T06:57:07.908Z,19.35
2022-08-14T07:02:29.757Z,19.39
2022-08-14T07:07:36.052Z,19.42
2022-08-14T07:12:56.544Z,19.38
2022-08-14T07:18:19.960Z,19.39
2022-08-14T07:23:24.596Z,19.59
2022-08-14T07:28:36.053Z,19.72
2022-08-14T07:34:04.076Z,19.84
2022-08-14T07:39:12.356Z,19.89
2022-08-14T07:44:29.460Z,19.89
2022-08-14T07:49:34.974Z,19.95
2022-08-14T07:54:36.852Z,20.04
2022-08-14T07:59:51.215Z,20.15
2022-08-14T08:04:59.191Z,20.34
2022-08-14T08:10:46.292Z,20.61
2022-08-14T08:15:53.935Z,21.23
2022-08-14T08:21:03.780Z,21.71
2022-08-14T08:26:06.154Z,21.86
2022-08-14T08:31:33.082Z,21.91
2022-08-14T08:36:46.587Z,22.14
2022-08-14T08:56:50.135Z,21.85
2022-08-14T09:01:58.252Z,22.01
2022-08-14T09:07:10.844Z,22.28
2022-08-14T09:12:15.116Z,22.59
2022-08-14T09:17:17.228Z,22.71
2022-08-14T09:22:35.509Z,22.71
2022-08-14T09:27:45.662Z,22.68
2022-08-14T09:33:23.107Z,22.58
2022-08-14T09:38:46.349Z,22.09
2022-08-14T09:44:20.952Z,21.69
2022-08-14T09:49:39.955Z,21.57
2022-08-14T09:54:48.355Z,21.43
2022-08-14T09:59:50.750Z,21.52
2022-08-14T10:05:10.227Z,21.77
2022-08-14T10:10:23.586Z,22.25
2022-08-14T10:15:30.083Z,22.43
2022-08-14T10:20:40.714Z,22.32
2022-08-14T10:25:49.288Z,22.40
2022-08-14T10:30:54.952Z,22.81
2022-08-14T10:36:00.779Z,23.70
2022-08-14T10:41:14.918Z,24.31
2022-08-14T10:47:37.037Z,24.73
2022-08-14T10:51:42.453Z,25.51
2022-08-14T10:56:58.441Z,26.53
2022-08-14T11:02:00.900Z,27.21
2022-08-14T11:07:02.978Z,27.87
2022-08-14T11:12:36.408Z,28.31
2022-08-14T11:17:32.737Z,28.78
2022-08-14T11:22:52.376Z,29.14
2022-08-14T11:28:00.460Z,29.64
2022-08-14T11:33:05.361Z,29.31
2022-08-14T11:38:08.224Z,28.66
2022-08-14T11:43:10.386Z,28.29
2022-08-14T11:48:58.998Z,28.11
2022-08-14T11:53:42.302Z,28.36
2022-08-14T11:58:51.252Z,28.57
2022-08-14T12:03:57.308Z,29.15
2022-08-14T12:09:00.560Z,29.57
2022-08-14T12:14:13.502Z,29.80
2022-08-14T12:19:43.890Z,30.50
2022-08-14T12:24:50.356Z,30.98
2022-08-14T12:29:54.034Z,31.65
2022-08-14T12:34:56.052Z,32.00
2022-08-14T12:40:20.759Z,31.78
2022-08-14T12:45:33.257Z,31.16
2022-08-14T12:50:42.103Z,30.75
2022-08-14T12:56:22.862Z,30.53
2022-08-14T13:01:27.861Z,30.51
2022-08-14T13:06:30.756Z,30.38
2022-08-14T13:11:45.734Z,30.62
2022-08-14T13:16:50.240Z,30.85
2022-08-14T13:22:04.779Z,30.80
2022-08-14T13:27:12.471Z,30.38
2022-08-14T13:32:18.767Z,30.27
2022-08-14T13:37:22.951Z,29.58
2022-08-14T13:42:31.588Z,29.45
2022-08-14T13:47:33.663Z,30.17
2022-08-14T13:53:05.757Z,30.89
2022-08-14T13:58:30.352Z,30.69
2022-08-14T14:03:37.796Z,31.14
2022-08-14T14:08:54.346Z,31.86
2022-08-14T14:14:01.042Z,32.33
2022-08-14T14:19:09.770Z,32.27
2022-08-14T14:24:15.340Z,32.59
2022-08-14T14:29:23.980Z,33.39
2022-08-14T14:34:30.863Z,34.19
2022-08-14T14:39:37.592Z,34.46
2022-08-14T14:45:04.690Z,34.31
2022-08-14T14:50:11.387Z,34.06
2022-08-14T14:55:17.014Z,34.02
2022-08-14T15:00:20.239Z,33.38
2022-08-14T15:05:22.426Z,33.06
2022-08-14T15:10:27.074Z,33.18
2022-08-14T15:15:36.822Z,33.22
2022-08-14T15:20:41.114Z,33.00
2022-08-14T15:25:52.963Z,33.05
2022-08-14T15:30:57.866Z,32.85
2022-08-14T15:36:02.389Z,32.79
2022-08-14T15:41:08.639Z,32.42
2022-08-14T15:46:10.830Z,32.42
2022-08-14T15:51:32.994Z,33.00
2022-08-14T15:56:43.235Z,33.68
2022-08-14T16:01:55.379Z,34.10
2022-08-14T16:06:58.107Z,34.61
2022-08-14T16:12:00.038Z,34.77
2022-08-14T16:17:03.327Z,35.32
2022-08-14T16:22:59.351Z,35.37
2022-08-14T16:28:03.553Z,35.45
2022-08-14T16:33:59.723Z,35.88
2022-08-14T16:38:53.451Z,35.94
2022-08-14T16:44:31.644Z,35.93
2022-08-14T16:50:05.041Z,35.88
2022-08-14T16:54:58.547Z,35.60
2022-08-14T17:00:07.036Z,35.79
2022-08-14T17:05:29.062Z,36.07
2022-08-14T17:10:32.659Z,35.97
2022-08-14T17:15:36.810Z,35.82
2022-08-14T17:21:01.736Z,35.56
2022-08-14T17:26:06.290Z,34.68
2022-08-14T17:31:09.810Z,33.42
2022-08-14T17:36:26.202Z,32.34
2022-08-14T17:41:36.286Z,31.53
2022-08-14T17:46:55.138Z,30.82
2022-08-14T17:52:17.134Z,30.14
2022-08-14T17:57:29.500Z,29.52
2022-08-14T18:02:39.578Z,28.86
2022-08-14T18:07:59.396Z,27.95
2022-08-14T18:13:02.995Z,27.03
2022-08-14T18:18:08.813Z,26.24
2022-08-14T18:23:31.354Z,25.65
2022-08-14T18:28:51.303Z,25.16
2022-08-14T18:33:56.899Z,24.80
2022-08-14T18:39:34.772Z,24.61
2022-08-14T18:44:58.795Z,24.42
2022-08-14T18:50:26.988Z,24.20
2022-08-14T18:55:30.024Z,23.84
2022-08-14T19:00:33.898Z,23.56
2022-08-14T19:05:47.460Z,23.36
2022-08-14T19:10:57.682Z,23.13
2022-08-14T19:16:16.518Z,22.84
2022-08-14T19:21:42.369Z,22.69
2022-08-14T19:27:26.397Z,22.49
2022-08-14T19:32:40.978Z,22.15
2022-08-14T19:38:03.441Z,21.88
2022-08-14T19:43:55.755Z,21.60
2022-08-14T19:48:56.757Z,21.48
2022-08-14T19:54:13.666Z,21.38
2022-08-14T19:59:21.454Z,21.27
2022-08-14T20:04:45.863Z,21.15
2022-08-14T20:11:03.251Z,21.04
2022-08-14T20:15:15.579Z,21.01
2022-08-14T20:20:31.765Z,20.99
2022-08-14T20:25:45.345Z,20.98
2022-08-14T20:31:36.440Z,21.01
2022-08-14T20:36:40.796Z,21.07
2022-08-14T20:41:49.839Z,21.14
2022-08-14T20:47:00.670Z,21.20
2022-08-14T20:52:18.799Z,21.22
2022-08-14T20:57:22.552Z,21.15
2022-08-14T21:02:50.633Z,21.08
2022-08-14T21:07:57.204Z,21.06
2022-08-14T21:14:08.915Z,21.04
2022-08-14T21:18:44.950Z,21.03
2022-08-14T21:23:55.860Z,20.96
2022-08-14T21:28:59.350Z,20.98
2022-08-14T21:34:02.493Z,21.00
2022-08-14T21:39:16.413Z,21.01
2022-08-14T21:44:20.356Z,20.98
2022-08-14T21:49:40.128Z,20.93
2022-08-14T21:54:49.273Z,20.77
2022-08-14T21:59:52.595Z,20.73
2022-08-14T22:04:57.115Z,20.71
2022-08-14T22:09:59.276Z,20.63
2022-08-14T22:15:01.949Z,20.52
2022-08-14T22:20:07.167Z,20.35
2022-08-14T22:25:10.572Z,20.22
2022-08-14T22:30:19.804Z,20.08
2022-08-14T22:35:23.625Z,19.97
2022-08-14T22:40:56.685Z,19.88
2022-08-14T22:45:55.632Z,19.79
2022-08-14T22:50:58.880Z,19.75
2022-08-14T22:56:04.394Z,19.74
2022-08-14T23:01:12.439Z,19.71
2022-08-14T23:07:02.606Z,19.69
2022-08-14T23:11:59.746Z,19.65
2022-08-14T23:17:12.041Z,19.62
2022-08-14T23:22:16.752Z,19.55
2022-08-14T23:27:20.971Z,19.57
2022-08-14T23:32:35.707Z,19.52
2022-08-14T23:37:38.393Z,19.45
2022-08-14T23:43:03.034Z,19.42
2022-08-14T23:48:09.910Z,19.39
2022-08-14T23:53:48.592Z,19.34
2022-08-14T23:58:53.136Z,19.29
